sensor_id;sensor_type;location;lat;lon;timestamp;pressure;altitude;pressure_sealevel;temperature;humidity
24788;BME280;12883;52.662;5.196;2023-03-01T00:01:15;103351.16;;;1.96;100.00
24788;BME280;12883;52.662;5.196;2023-03-01T00:03:41;103338.56;;;1.87;100.00
24788;BME280;12883;52.662;5.196;2023-03-01T00:06:07;103329.09;;;1.84;100.00
24788;BME280;12883;52.662;5.196;2023-03-01T00:08:32;103324.00;;;1.81;100.00
24788;BME280;12883;52.662;5.196;2023-03-01T00:13:34;103330.59;;;1.73;100.00
24788;BME280;12883;52.662;5.196;2023-03-01T00:16:05;103330.25;;;1.79;100.00
24788;BME280;12883;52.662;5.196;2023-03-01T00:18:30;103332.28;;;1.74;100.00
24788;BME280;12883;52.662;5.196;2023-03-01T00:20:56;103326.75;;;1.63;100.00
24788;BME280;12883;52.662;5.196;2023-03-01T00:23:22;103333.28;;;1.71;100.00
24788;BME280;12883;52.662;5.196;2023-03-01T00:25:48;103327.38;;;1.68;100.00
24788;BME280;12883;52.662;5.196;2023-03-01T00:28:13;103262.53;;;1.25;100.00
24788;BME280;12883;52.662;5.196;2023-03-01T00:30:39;103321.75;;;1.58;100.00
24788;BME280;12883;52.662;5.196;2023-03-01T00:33:04;103311.66;;;1.68;100.00
24788;BME280;12883;52.662;5.196;2023-03-01T00:35:32;103314.59;;;1.62;100.00
24788;BME280;12883;52.662;5.196;2023-03-01T00:37:57;103311.44;;;1.55;100.00
24788;BME280;12883;52.662;5.196;2023-03-01T00:40:27;103304.75;;;1.50;100.00
24788;BME280;12883;52.662;5.196;2023-03-01T00:42:53;103312.91;;;1.61;100.00
24788;BME280;12883;52.662;5.196;2023-03-01T00:45:19;103129.47;;;0.54;100.00
24788;BME280;12883;52.662;5.196;2023-03-01T00:47:44;103320.06;;;1.57;100.00
24788;BME280;12883;52.662;5.196;2023-03-01T00:50:10;103324.44;;;1.57;100.00
24788;BME280;12883;52.662;5.196;2023-03-01T00:52:36;103316.16;;;1.49;100.00
24788;BME280;12883;52.662;5.196;2023-03-01T00:55:02;103318.78;;;1.49;100.00
24788;BME280;12883;52.662;5.196;2023-03-01T00:57:27;103311.94;;;1.46;100.00
24788;BME280;12883;52.662;5.196;2023-03-01T00:59:52;103312.78;;;1.47;100.00
24788;BME280;12883;52.662;5.196;2023-03-01T01:02:19;103315.66;;;1.42;100.00
24788;BME280;12883;52.662;5.196;2023-03-01T01:04:45;103304.00;;;1.48;100.00
24788;BME280;12883;52.662;5.196;2023-03-01T01:07:11;103297.66;;;1.36;100.00
24788;BME280;12883;52.662;5.196;2023-03-01T01:09:36;103298.09;;;1.44;100.00
24788;BME280;12883;52.662;5.196;2023-03-01T01:12:02;103299.09;;;1.42;100.00
24788;BME280;12883;52.662;5.196;2023-03-01T01:14:28;103286.78;;;1.44;100.00
24788;BME280;12883;52.662;5.196;2023-03-01T01:16:53;103239.06;;;1.06;100.00
24788;BME280;12883;52.662;5.196;2023-03-01T01:19:19;103297.22;;;1.44;100.00
24788;BME280;12883;52.662;5.196;2023-03-01T01:21:44;103255.31;;;1.13;100.00
24788;BME280;12883;52.662;5.196;2023-03-01T01:24:11;103285.50;;;1.35;100.00
24788;BME280;12883;52.662;5.196;2023-03-01T01:26:36;103289.13;;;1.33;100.00
24788;BME280;12883;52.662;5.196;2023-03-01T01:29:04;103290.50;;;1.23;100.00
24788;BME280;12883;52.662;5.196;2023-03-01T01:31:30;103281.03;;;1.37;100.00
24788;BME280;12883;52.662;5.196;2023-03-01T01:34:00;103281.41;;;1.30;100.00
24788;BME280;12883;52.662;5.196;2023-03-01T01:36:26;103278.66;;;1.33;100.00
24788;BME280;12883;52.662;5.196;2023-03-01T01:38:51;103279.59;;;1.32;100.00
24788;BME280;12883;52.662;5.196;2023-03-01T01:41:18;103276.97;;;1.32;100.00
24788;BME280;12883;52.662;5.196;2023-03-01T01:43:47;103266.81;;;1.26;100.00
24788;BME280;12883;52.662;5.196;2023-03-01T01:46:19;103253.22;;;1.19;100.00
24788;BME280;12883;52.662;5.196;2023-03-01T01:48:50;103273.88;;;1.24;100.00
24788;BME280;12883;52.662;5.196;2023-03-01T01:51:20;103209.69;;;0.86;100.00
24788;BME280;12883;52.662;5.196;2023-03-01T01:53:53;103256.69;;;1.03;100.00
24788;BME280;12883;52.662;5.196;2023-03-01T01:56:21;103260.91;;;1.05;100.00
24788;BME280;12883;52.662;5.196;2023-03-01T01:58:49;103273.69;;;1.11;100.00
24788;BME280;12883;52.662;5.196;2023-03-01T02:01:15;103244.84;;;0.96;100.00
24788;BME280;12883;52.662;5.196;2023-03-01T02:03:43;103264.88;;;0.97;100.00
24788;BME280;12883;52.662;5.196;2023-03-01T02:08:37;103230.66;;;0.84;100.00
24788;BME280;12883;52.662;5.196;2023-03-01T02:11:04;103247.41;;;0.97;100.00
24788;BME280;12883;52.662;5.196;2023-03-01T02:13:32;103225.28;;;0.87;100.00
24788;BME280;12883;52.662;5.196;2023-03-01T02:15:58;103255.63;;;1.07;100.00
24788;BME280;12883;52.662;5.196;2023-03-01T02:18:24;103207.19;;;0.83;100.00
24788;BME280;12883;52.662;5.196;2023-03-01T02:21:17;103242.78;;;1.02;100.00
24788;BME280;12883;52.662;5.196;2023-03-01T02:23:46;103242.72;;;1.04;100.00
24788;BME280;12883;52.662;5.196;2023-03-01T02:26:23;103245.63;;;0.98;100.00
24788;BME280;12883;52.662;5.196;2023-03-01T02:28:51;103238.72;;;0.97;100.00
24788;BME280;12883;52.662;5.196;2023-03-01T02:31:19;103223.94;;;0.96;100.00
24788;BME280;12883;52.662;5.196;2023-03-01T02:34:04;103182.09;;;0.63;100.00
24788;BME280;12883;52.662;5.196;2023-03-01T02:36:37;103229.34;;;0.93;100.00
24788;BME280;12883;52.662;5.196;2023-03-01T02:39:06;103230.28;;;0.92;100.00
24788;BME280;12883;52.662;5.196;2023-03-01T02:41:35;103216.50;;;0.88;100.00
24788;BME280;12883;52.662;5.196;2023-03-01T02:44:03;103224.66;;;0.82;100.00
24788;BME280;12883;52.662;5.196;2023-03-01T02:46:28;103221.81;;;0.87;100.00
24788;BME280;12883;52.662;5.196;2023-03-01T02:48:56;103219.19;;;0.87;100.00
24788;BME280;12883;52.662;5.196;2023-03-01T02:51:38;103182.97;;;0.64;100.00
24788;BME280;12883;52.662;5.196;2023-03-01T02:54:21;103228.34;;;0.78;100.00
24788;BME280;12883;52.662;5.196;2023-03-01T02:56:48;103202.59;;;0.54;100.00
24788;BME280;12883;52.662;5.196;2023-03-01T02:59:16;103214.59;;;0.75;100.00
24788;BME280;12883;52.662;5.196;2023-03-01T03:01:41;103214.81;;;0.70;100.00
24788;BME280;12883;52.662;5.196;2023-03-01T03:04:10;103216.28;;;0.76;100.00
24788;BME280;12883;52.662;5.196;2023-03-01T03:06:36;103208.06;;;0.66;100.00
24788;BME280;12883;52.662;5.196;2023-03-01T03:09:03;103195.38;;;0.59;100.00
24788;BME280;12883;52.662;5.196;2023-03-01T03:11:29;103196.84;;;0.64;100.00
24788;BME280;12883;52.662;5.196;2023-03-01T03:13:55;103205.22;;;0.71;100.00
24788;BME280;12883;52.662;5.196;2023-03-01T03:16:21;103200.84;;;0.71;100.00
24788;BME280;12883;52.662;5.196;2023-03-01T03:18:47;103203.53;;;0.70;100.00
24788;BME280;12883;52.662;5.196;2023-03-01T03:21:12;103207.97;;;0.68;100.00
24788;BME280;12883;52.662;5.196;2023-03-01T03:23:38;103175.72;;;0.52;100.00
24788;BME280;12883;52.662;5.196;2023-03-01T03:26:05;103190.84;;;0.62;100.00
24788;BME280;12883;52.662;5.196;2023-03-01T03:28:31;103180.41;;;0.62;100.00
24788;BME280;12883;52.662;5.196;2023-03-01T03:30:57;103177.97;;;0.59;100.00
24788;BME280;12883;52.662;5.196;2023-03-01T03:33:23;103104.19;;;0.22;100.00
24788;BME280;12883;52.662;5.196;2023-03-01T03:35:49;103176.88;;;0.63;100.00
24788;BME280;12883;52.662;5.196;2023-03-01T03:38:17;103181.56;;;0.40;100.00
24788;BME280;12883;52.662;5.196;2023-03-01T03:41:02;103175.28;;;0.44;100.00
24788;BME280;12883;52.662;5.196;2023-03-01T03:43:29;103178.13;;;0.39;100.00
24788;BME280;12883;52.662;5.196;2023-03-01T03:45:55;103180.97;;;0.35;100.00
24788;BME280;12883;52.662;5.196;2023-03-01T03:48:22;103174.03;;;0.34;100.00
24788;BME280;12883;52.662;5.196;2023-03-01T03:50:50;103174.34;;;0.28;100.00
24788;BME280;12883;52.662;5.196;2023-03-01T03:53:16;103173.09;;;0.18;100.00
24788;BME280;12883;52.662;5.196;2023-03-01T03:55:41;103172.97;;;0.21;100.00
24788;BME280;12883;52.662;5.196;2023-03-01T03:58:09;103172.50;;;0.30;100.00
24788;BME280;12883;52.662;5.196;2023-03-01T04:00:39;103168.91;;;0.32;100.00
24788;BME280;12883;52.662;5.196;2023-03-01T04:03:06;103162.81;;;0.32;100.00
24788;BME280;12883;52.662;5.196;2023-03-01T04:05:32;103164.03;;;0.25;100.00
24788;BME280;12883;52.662;5.196;2023-03-01T04:07:58;103148.69;;;0.19;100.00
24788;BME280;12883;52.662;5.196;2023-03-01T04:10:53;103161.66;;;0.20;100.00
24788;BME280;12883;52.662;5.196;2023-03-01T04:13:22;103155.75;;;0.17;100.00
24788;BME280;12883;52.662;5.196;2023-03-01T04:15:54;103075.53;;;-0.49;100.00
24788;BME280;12883;52.662;5.196;2023-03-01T04:18:21;103156.03;;;0.11;100.00
24788;BME280;12883;52.662;5.196;2023-03-01T04:20:47;103164.78;;;0.10;100.00
24788;BME280;12883;52.662;5.196;2023-03-01T04:23:18;103159.66;;;0.08;100.00
24788;BME280;12883;52.662;5.196;2023-03-01T04:28:31;103163.81;;;0.12;100.00
24788;BME280;12883;52.662;5.196;2023-03-01T04:31:03;103152.50;;;0.12;100.00
24788;BME280;12883;52.662;5.196;2023-03-01T04:33:37;103115.06;;;-0.04;100.00
24788;BME280;12883;52.662;5.196;2023-03-01T04:36:03;103147.44;;;0.09;100.00
24788;BME280;12883;52.662;5.196;2023-03-01T04:38:30;103153.03;;;0.01;100.00
24788;BME280;12883;52.662;5.196;2023-03-01T04:40:55;103161.56;;;0.05;100.00
24788;BME280;12883;52.662;5.196;2023-03-01T04:43:21;103167.06;;;-0.01;100.00
24788;BME280;12883;52.662;5.196;2023-03-01T04:45:46;103164.03;;;-0.11;100.00
24788;BME280;12883;52.662;5.196;2023-03-01T04:48:12;103162.25;;;-0.08;100.00
24788;BME280;12883;52.662;5.196;2023-03-01T04:50:37;103164.00;;;-0.09;100.00
24788;BME280;12883;52.662;5.196;2023-03-01T04:53:02;103168.38;;;-0.09;100.00
24788;BME280;12883;52.662;5.196;2023-03-01T04:55:28;103149.72;;;-0.19;100.00
24788;BME280;12883;52.662;5.196;2023-03-01T04:57:54;103151.19;;;-0.32;100.00
24788;BME280;12883;52.662;5.196;2023-03-01T05:00:20;103127.50;;;-0.27;100.00
24788;BME280;12883;52.662;5.196;2023-03-01T05:02:51;103153.25;;;-0.20;100.00
24788;BME280;12883;52.662;5.196;2023-03-01T05:05:30;103151.09;;;-0.12;100.00
24788;BME280;12883;52.662;5.196;2023-03-01T05:07:58;103152.63;;;-0.08;100.00
24788;BME280;12883;52.662;5.196;2023-03-01T05:10:25;103146.94;;;-0.16;100.00
24788;BME280;12883;52.662;5.196;2023-03-01T05:12:51;103140.50;;;-0.09;100.00
24788;BME280;12883;52.662;5.196;2023-03-01T05:15:18;103134.31;;;-0.07;100.00
24788;BME280;12883;52.662;5.196;2023-03-01T05:17:44;103135.22;;;-0.08;100.00
24788;BME280;12883;52.662;5.196;2023-03-01T05:20:10;103128.56;;;-0.13;100.00
24788;BME280;12883;52.662;5.196;2023-03-01T05:22:36;103114.53;;;-0.29;100.00
24788;BME280;12883;52.662;5.196;2023-03-01T05:25:02;103120.91;;;-0.17;100.00
24788;BME280;12883;52.662;5.196;2023-03-01T05:27:27;103122.13;;;-0.24;100.00
24788;BME280;12883;52.662;5.196;2023-03-01T05:29:55;103111.84;;;-0.27;100.00
24788;BME280;12883;52.662;5.196;2023-03-01T05:32:20;103114.72;;;-0.15;100.00
24788;BME280;12883;52.662;5.196;2023-03-01T05:34:45;103121.84;;;-0.18;100.00
24788;BME280;12883;52.662;5.196;2023-03-01T05:37:12;103124.22;;;-0.14;100.00
24788;BME280;12883;52.662;5.196;2023-03-01T05:39:37;103127.16;;;-0.20;100.00
24788;BME280;12883;52.662;5.196;2023-03-01T05:42:02;103105.06;;;-0.13;100.00
24788;BME280;12883;52.662;5.196;2023-03-01T05:44:28;103072.91;;;-0.30;100.00
24788;BME280;12883;52.662;5.196;2023-03-01T05:46:54;103109.59;;;-0.16;100.00
24788;BME280;12883;52.662;5.196;2023-03-01T05:49:20;103108.91;;;-0.20;100.00
24788;BME280;12883;52.662;5.196;2023-03-01T05:51:51;103098.75;;;-0.26;100.00
24788;BME280;12883;52.662;5.196;2023-03-01T05:54:18;103109.94;;;-0.24;100.00
24788;BME280;12883;52.662;5.196;2023-03-01T05:56:44;103096.91;;;-0.24;100.00
24788;BME280;12883;52.662;5.196;2023-03-01T05:59:10;103100.91;;;-0.34;100.00
24788;BME280;12883;52.662;5.196;2023-03-01T06:01:36;103090.13;;;-0.28;100.00
24788;BME280;12883;52.662;5.196;2023-03-01T06:04:02;103087.22;;;-0.39;100.00
24788;BME280;12883;52.662;5.196;2023-03-01T06:06:28;103101.50;;;-0.29;100.00
24788;BME280;12883;52.662;5.196;2023-03-01T06:08:54;103085.25;;;-0.34;100.00
24788;BME280;12883;52.662;5.196;2023-03-01T06:11:20;103088.91;;;-0.38;100.00
24788;BME280;12883;52.662;5.196;2023-03-01T06:13:46;103087.34;;;-0.42;100.00
24788;BME280;12883;52.662;5.196;2023-03-01T06:16:13;103090.19;;;-0.46;100.00
24788;BME280;12883;52.662;5.196;2023-03-01T06:18:40;103074.63;;;-0.48;100.00
24788;BME280;12883;52.662;5.196;2023-03-01T06:21:06;103082.28;;;-0.45;100.00
24788;BME280;12883;52.662;5.196;2023-03-01T06:23:32;103084.16;;;-0.30;100.00
24788;BME280;12883;52.662;5.196;2023-03-01T06:25:58;103088.69;;;-0.33;100.00
24788;BME280;12883;52.662;5.196;2023-03-01T06:28:24;103081.09;;;-0.38;100.00
24788;BME280;12883;52.662;5.196;2023-03-01T06:30:49;103108.63;;;-0.32;100.00
24788;BME280;12883;52.662;5.196;2023-03-01T06:33:15;103103.56;;;-0.35;100.00
24788;BME280;12883;52.662;5.196;2023-03-01T06:35:40;103112.72;;;-0.27;100.00
24788;BME280;12883;52.662;5.196;2023-03-01T06:38:06;103092.91;;;-0.31;100.00
24788;BME280;12883;52.662;5.196;2023-03-01T06:40:32;103097.94;;;-0.45;100.00
24788;BME280;12883;52.662;5.196;2023-03-01T06:43:00;103096.94;;;-0.42;100.00
24788;BME280;12883;52.662;5.196;2023-03-01T06:45:26;103094.06;;;-0.36;100.00
24788;BME280;12883;52.662;5.196;2023-03-01T06:47:51;103062.94;;;-0.58;100.00
24788;BME280;12883;52.662;5.196;2023-03-01T06:50:17;103088.44;;;-0.29;100.00
24788;BME280;12883;52.662;5.196;2023-03-01T06:52:43;103091.34;;;-0.35;100.00
24788;BME280;12883;52.662;5.196;2023-03-01T06:55:10;103077.38;;;-0.51;100.00
24788;BME280;12883;52.662;5.196;2023-03-01T06:57:35;103090.75;;;-0.40;100.00
24788;BME280;12883;52.662;5.196;2023-03-01T07:00:02;103104.38;;;-0.35;100.00
24788;BME280;12883;52.662;5.196;2023-03-01T07:02:27;103113.72;;;-0.29;100.00
24788;BME280;12883;52.662;5.196;2023-03-01T07:04:52;103113.31;;;-0.22;100.00
24788;BME280;12883;52.662;5.196;2023-03-01T07:07:18;103088.66;;;-0.50;100.00
24788;BME280;12883;52.662;5.196;2023-03-01T07:09:45;103123.16;;;-0.27;100.00
24788;BME280;12883;52.662;5.196;2023-03-01T07:12:10;103112.28;;;-0.18;100.00
24788;BME280;12883;52.662;5.196;2023-03-01T07:14:36;103098.94;;;-0.12;100.00
24788;BME280;12883;52.662;5.196;2023-03-01T07:17:01;103089.09;;;-0.24;100.00
24788;BME280;12883;52.662;5.196;2023-03-01T07:19:26;103119.81;;;0.05;100.00
24788;BME280;12883;52.662;5.196;2023-03-01T07:21:52;103125.41;;;0.14;100.00
24788;BME280;12883;52.662;5.196;2023-03-01T07:24:17;103123.22;;;0.07;100.00
24788;BME280;12883;52.662;5.196;2023-03-01T07:26:43;103130.03;;;0.26;100.00
24788;BME280;12883;52.662;5.196;2023-03-01T07:29:10;103118.16;;;0.21;100.00
24788;BME280;12883;52.662;5.196;2023-03-01T07:31:35;103137.13;;;0.24;100.00
24788;BME280;12883;52.662;5.196;2023-03-01T07:34:02;103136.34;;;0.39;100.00
24788;BME280;12883;52.662;5.196;2023-03-01T07:36:27;103133.03;;;0.53;100.00
24788;BME280;12883;52.662;5.196;2023-03-01T07:38:53;103130.53;;;0.67;100.00
24788;BME280;12883;52.662;5.196;2023-03-01T07:41:21;103095.09;;;0.63;100.00
24788;BME280;12883;52.662;5.196;2023-03-01T07:43:46;103115.47;;;1.04;100.00
24788;BME280;12883;52.662;5.196;2023-03-01T07:46:11;103084.88;;;0.91;100.00
24788;BME280;12883;52.662;5.196;2023-03-01T07:48:37;103112.16;;;1.18;100.00
24788;BME280;12883;52.662;5.196;2023-03-01T07:51:04;103113.41;;;1.26;100.00
24788;BME280;12883;52.662;5.196;2023-03-01T07:53:30;103103.78;;;1.27;100.00
24788;BME280;12883;52.662;5.196;2023-03-01T07:56:01;103111.06;;;1.53;100.00
24788;BME280;12883;52.662;5.196;2023-03-01T07:58:27;103120.25;;;1.60;100.00
24788;BME280;12883;52.662;5.196;2023-03-01T08:00:52;103068.88;;;1.43;100.00
24788;BME280;12883;52.662;5.196;2023-03-01T08:03:17;103122.09;;;1.73;100.00
24788;BME280;12883;52.662;5.196;2023-03-01T08:05:43;103128.25;;;1.88;100.00
24788;BME280;12883;52.662;5.196;2023-03-01T08:08:08;103065.22;;;1.61;100.00
24788;BME280;12883;52.662;5.196;2023-03-01T08:10:33;103109.47;;;1.95;100.00
24788;BME280;12883;52.662;5.196;2023-03-01T08:12:58;103118.50;;;2.05;100.00
24788;BME280;12883;52.662;5.196;2023-03-01T08:15:24;103118.59;;;2.04;100.00
24788;BME280;12883;52.662;5.196;2023-03-01T08:17:49;103120.84;;;2.10;100.00
24788;BME280;12883;52.662;5.196;2023-03-01T08:20:15;103128.16;;;2.19;100.00
24788;BME280;12883;52.662;5.196;2023-03-01T08:22:41;103120.81;;;2.25;100.00
24788;BME280;12883;52.662;5.196;2023-03-01T08:25:07;103061.94;;;2.03;100.00
24788;BME280;12883;52.662;5.196;2023-03-01T08:27:33;103111.03;;;2.43;100.00
24788;BME280;12883;52.662;5.196;2023-03-01T08:29:58;103127.22;;;2.49;100.00
24788;BME280;12883;52.662;5.196;2023-03-01T08:32:24;103107.47;;;2.44;100.00
24788;BME280;12883;52.662;5.196;2023-03-01T08:34:49;103121.53;;;2.57;100.00
24788;BME280;12883;52.662;5.196;2023-03-01T08:37:14;103077.72;;;2.45;100.00
24788;BME280;12883;52.662;5.196;2023-03-01T08:39:40;103115.09;;;2.62;100.00
24788;BME280;12883;52.662;5.196;2023-03-01T08:42:05;103115.38;;;2.72;100.00
24788;BME280;12883;52.662;5.196;2023-03-01T08:44:30;103106.22;;;2.79;100.00
24788;BME280;12883;52.662;5.196;2023-03-01T08:46:55;103111.25;;;2.82;100.00
24788;BME280;12883;52.662;5.196;2023-03-01T08:49:22;103101.91;;;2.78;100.00
24788;BME280;12883;52.662;5.196;2023-03-01T08:51:48;103088.44;;;2.84;100.00
24788;BME280;12883;52.662;5.196;2023-03-01T08:54:19;103092.91;;;2.96;100.00
24788;BME280;12883;52.662;5.196;2023-03-01T08:56:45;103080.94;;;2.92;100.00
24788;BME280;12883;52.662;5.196;2023-03-01T08:59:11;103084.75;;;2.86;100.00
24788;BME280;12883;52.662;5.196;2023-03-01T09:01:37;103081.00;;;3.04;100.00
24788;BME280;12883;52.662;5.196;2023-03-01T09:04:02;103073.81;;;2.94;100.00
24788;BME280;12883;52.662;5.196;2023-03-01T09:06:30;103083.72;;;3.03;100.00
24788;BME280;12883;52.662;5.196;2023-03-01T09:08:56;103058.75;;;2.83;100.00
24788;BME280;12883;52.662;5.196;2023-03-01T09:11:22;103085.81;;;2.98;100.00
24788;BME280;12883;52.662;5.196;2023-03-01T09:13:48;103075.56;;;3.07;100.00
24788;BME280;12883;52.662;5.196;2023-03-01T09:16:17;103081.47;;;3.11;100.00
24788;BME280;12883;52.662;5.196;2023-03-01T09:18:43;103066.88;;;3.07;100.00
24788;BME280;12883;52.662;5.196;2023-03-01T09:21:10;103075.50;;;3.35;100.00
24788;BME280;12883;52.662;5.196;2023-03-01T09:23:43;103079.72;;;3.38;100.00
24788;BME280;12883;52.662;5.196;2023-03-01T09:26:12;103070.06;;;3.52;100.00
24788;BME280;12883;52.662;5.196;2023-03-01T09:28:38;103051.63;;;3.40;100.00
24788;BME280;12883;52.662;5.196;2023-03-01T09:31:05;103059.94;;;3.46;100.00
24788;BME280;12883;52.662;5.196;2023-03-01T09:33:31;103083.47;;;3.74;100.00
24788;BME280;12883;52.662;5.196;2023-03-01T09:36:05;103078.47;;;3.84;100.00
24788;BME280;12883;52.662;5.196;2023-03-01T09:38:32;103071.94;;;3.77;100.00
24788;BME280;12883;52.662;5.196;2023-03-01T09:40:59;103059.66;;;3.77;100.00
24788;BME280;12883;52.662;5.196;2023-03-01T09:46:13;103060.31;;;3.81;100.00
24788;BME280;12883;52.662;5.196;2023-03-01T09:48:46;103058.84;;;3.89;100.00
24788;BME280;12883;52.662;5.196;2023-03-01T09:51:23;103060.41;;;3.92;100.00
24788;BME280;12883;52.662;5.196;2023-03-01T09:53:50;103036.06;;;3.90;100.00
24788;BME280;12883;52.662;5.196;2023-03-01T09:56:33;103046.16;;;3.96;100.00
24788;BME280;12883;52.662;5.196;2023-03-01T09:59:09;103046.06;;;4.10;100.00
24788;BME280;12883;52.662;5.196;2023-03-01T10:04:49;103039.28;;;4.32;100.00
24788;BME280;12883;52.662;5.196;2023-03-01T10:09:52;103046.84;;;4.37;100.00
24788;BME280;12883;52.662;5.196;2023-03-01T10:12:20;103045.06;;;4.50;100.00
24788;BME280;12883;52.662;5.196;2023-03-01T10:14:58;103034.84;;;4.33;100.00
24788;BME280;12883;52.662;5.196;2023-03-01T10:17:51;103036.00;;;4.53;100.00
24788;BME280;12883;52.662;5.196;2023-03-01T10:20:26;103039.34;;;4.55;100.00
24788;BME280;12883;52.662;5.196;2023-03-01T10:22:55;103024.34;;;4.33;100.00
24788;BME280;12883;52.662;5.196;2023-03-01T10:25:44;103040.00;;;4.59;100.00
24788;BME280;12883;52.662;5.196;2023-03-01T10:31:03;103048.38;;;4.76;100.00
24788;BME280;12883;52.662;5.196;2023-03-01T10:33:31;103050.63;;;4.70;100.00
24788;BME280;12883;52.662;5.196;2023-03-01T10:35:57;103052.91;;;4.87;100.00
24788;BME280;12883;52.662;5.196;2023-03-01T10:38:23;103002.34;;;4.71;100.00
24788;BME280;12883;52.662;5.196;2023-03-01T10:41:00;103051.09;;;5.12;100.00
24788;BME280;12883;52.662;5.196;2023-03-01T10:43:59;103042.41;;;5.23;100.00
24788;BME280;12883;52.662;5.196;2023-03-01T10:46:29;103036.59;;;5.30;100.00
24788;BME280;12883;52.662;5.196;2023-03-01T10:49:15;103039.50;;;5.38;100.00
24788;BME280;12883;52.662;5.196;2023-03-01T10:51:41;103043.00;;;5.62;100.00
24788;BME280;12883;52.662;5.196;2023-03-01T10:56:49;103038.81;;;5.83;100.00
24788;BME280;12883;52.662;5.196;2023-03-01T10:59:27;103041.81;;;5.90;100.00
24788;BME280;12883;52.662;5.196;2023-03-01T11:02:15;103042.66;;;5.90;100.00
24788;BME280;12883;52.662;5.196;2023-03-01T11:04:56;103037.59;;;5.87;100.00
24788;BME280;12883;52.662;5.196;2023-03-01T11:07:21;103036.19;;;5.83;100.00
24788;BME280;12883;52.662;5.196;2023-03-01T11:09:47;103039.31;;;5.88;100.00
24788;BME280;12883;52.662;5.196;2023-03-01T11:12:16;103044.59;;;5.99;100.00
24788;BME280;12883;52.662;5.196;2023-03-01T11:14:50;103030.06;;;5.83;100.00
24788;BME280;12883;52.662;5.196;2023-03-01T11:17:30;103035.41;;;6.05;100.00
24788;BME280;12883;52.662;5.196;2023-03-01T11:22:47;103037.34;;;6.14;100.00
24788;BME280;12883;52.662;5.196;2023-03-01T11:25:15;103032.44;;;6.20;100.00
24788;BME280;12883;52.662;5.196;2023-03-01T11:27:44;103033.19;;;6.22;100.00
24788;BME280;12883;52.662;5.196;2023-03-01T11:30:27;103030.56;;;6.33;100.00
24788;BME280;12883;52.662;5.196;2023-03-01T11:33:05;103021.09;;;6.31;100.00
24788;BME280;12883;52.662;5.196;2023-03-01T11:35:36;102987.38;;;6.01;100.00
24788;BME280;12883;52.662;5.196;2023-03-01T11:38:21;103011.59;;;6.28;100.00
24788;BME280;12883;52.662;5.196;2023-03-01T11:40:52;102983.94;;;6.12;100.00
24788;BME280;12883;52.662;5.196;2023-03-01T11:51:45;103006.84;;;6.55;100.00
24788;BME280;12883;52.662;5.196;2023-03-01T11:54:41;103008.28;;;6.48;100.00
24788;BME280;12883;52.662;5.196;2023-03-01T12:00:47;102999.78;;;6.56;100.00
24788;BME280;12883;52.662;5.196;2023-03-01T12:05:54;103002.53;;;6.54;100.00
24788;BME280;12883;52.662;5.196;2023-03-01T12:08:49;103003.50;;;6.64;100.00
24788;BME280;12883;52.662;5.196;2023-03-01T12:11:41;102995.59;;;6.64;100.00
24788;BME280;12883;52.662;5.196;2023-03-01T12:14:13;102987.78;;;6.74;100.00
24788;BME280;12883;52.662;5.196;2023-03-01T12:28:02;102982.00;;;6.80;100.00
24788;BME280;12883;52.662;5.196;2023-03-01T12:31:25;102975.44;;;6.85;100.00
24788;BME280;12883;52.662;5.196;2023-03-01T12:39:21;102965.91;;;6.94;100.00
24788;BME280;12883;52.662;5.196;2023-03-01T12:42:17;102960.63;;;6.94;100.00
24788;BME280;12883;52.662;5.196;2023-03-01T12:44:51;102961.75;;;6.91;100.00
24788;BME280;12883;52.662;5.196;2023-03-01T12:47:30;102959.19;;;7.01;100.00
24788;BME280;12883;52.662;5.196;2023-03-01T12:49:57;102944.69;;;7.06;100.00
24788;BME280;12883;52.662;5.196;2023-03-01T12:52:33;102942.28;;;7.03;100.00
24788;BME280;12883;52.662;5.196;2023-03-01T12:55:02;102934.81;;;7.08;100.00
24788;BME280;12883;52.662;5.196;2023-03-01T12:57:36;102924.94;;;7.21;100.00
24788;BME280;12883;52.662;5.196;2023-03-01T13:00:36;102928.25;;;7.34;100.00
24788;BME280;12883;52.662;5.196;2023-03-01T13:03:25;102880.38;;;7.07;100.00
24788;BME280;12883;52.662;5.196;2023-03-01T13:11:06;102912.44;;;7.23;100.00
24788;BME280;12883;52.662;5.196;2023-03-01T13:13:36;102922.50;;;7.29;100.00
24788;BME280;12883;52.662;5.196;2023-03-01T13:19:13;102924.84;;;7.43;100.00
24788;BME280;12883;52.662;5.196;2023-03-01T13:21:40;102888.44;;;7.26;100.00
24788;BME280;12883;52.662;5.196;2023-03-01T13:29:54;102911.34;;;7.57;100.00
24788;BME280;12883;52.662;5.196;2023-03-01T13:32:38;102905.16;;;7.68;100.00
24788;BME280;12883;52.662;5.196;2023-03-01T13:37:40;102892.44;;;7.62;100.00
24788;BME280;12883;52.662;5.196;2023-03-01T13:42:52;102885.84;;;7.67;100.00
24788;BME280;12883;52.662;5.196;2023-03-01T13:47:49;102890.50;;;7.64;100.00
24788;BME280;12883;52.662;5.196;2023-03-01T13:50:23;102883.91;;;7.69;100.00
24788;BME280;12883;52.662;5.196;2023-03-01T13:52:59;102887.94;;;7.73;100.00
24788;BME280;12883;52.662;5.196;2023-03-01T13:55:34;102872.75;;;7.66;100.00
24788;BME280;12883;52.662;5.196;2023-03-01T13:58:04;102836.91;;;7.52;100.00
24788;BME280;12883;52.662;5.196;2023-03-01T14:00:39;102864.81;;;7.66;100.00
24788;BME280;12883;52.662;5.196;2023-03-01T14:03:13;102865.84;;;7.74;100.00
24788;BME280;12883;52.662;5.196;2023-03-01T14:05:41;102857.94;;;7.74;100.00
24788;BME280;12883;52.662;5.196;2023-03-01T14:08:22;102853.34;;;7.76;100.00
24788;BME280;12883;52.662;5.196;2023-03-01T14:13:35;102857.13;;;7.83;100.00
24788;BME280;12883;52.662;5.196;2023-03-01T14:16:16;102840.25;;;7.75;100.00
24788;BME280;12883;52.662;5.196;2023-03-01T14:19:15;102843.78;;;7.85;100.00